sensor_id;sensor_type;location;lat;lon;timestamp;pressure;altitude;pressure_sealevel;temperature;humidity
48614;BME280;34408;51.426;5.444;2023-01-29T00:00:23;103010.75;;;4.78;54.79
48614;BME280;34408;51.426;5.444;2023-01-29T00:02:51;103011.59;;;4.79;55.25
48614;BME280;34408;51.426;5.444;2023-01-29T00:05:19;102999.13;;;4.79;54.79
48614;BME280;34408;51.426;5.444;2023-01-29T00:07:53;103015.22;;;4.78;55.19
48614;BME280;34408;51.426;5.444;2023-01-29T00:10:22;103018.03;;;4.76;55.17
48614;BME280;34408;51.426;5.444;2023-01-29T00:12:49;103011.28;;;4.72;55.35
48614;BME280;34408;51.426;5.444;2023-01-29T00:15:18;103010.16;;;4.75;55.01
48614;BME280;34408;51.426;5.444;2023-01-29T00:17:47;103009.19;;;4.76;55.35
48614;BME280;34408;51.426;5.444;2023-01-29T00:20:15;103013.81;;;4.74;54.98
48614;BME280;34408;51.426;5.444;2023-01-29T00:22:44;102999.63;;;4.73;55.35
48614;BME280;34408;51.426;5.444;2023-01-29T00:25:12;102998.78;;;4.73;54.89
48614;BME280;34408;51.426;5.444;2023-01-29T00:27:39;102994.44;;;4.72;54.62
48614;BME280;34408;51.426;5.444;2023-01-29T00:30:08;102992.75;;;4.71;54.74
48614;BME280;34408;51.426;5.444;2023-01-29T00:32:38;102999.91;;;4.70;54.99
48614;BME280;34408;51.426;5.444;2023-01-29T00:35:08;102993.59;;;4.71;54.76
48614;BME280;34408;51.426;5.444;2023-01-29T00:37:36;102993.72;;;4.70;54.93
48614;BME280;34408;51.426;5.444;2023-01-29T00:40:05;102988.53;;;4.68;54.84
48614;BME280;34408;51.426;5.444;2023-01-29T00:42:32;102996.38;;;4.70;55.25
48614;BME280;34408;51.426;5.444;2023-01-29T00:45:18;102986.72;;;4.69;54.90
48614;BME280;34408;51.426;5.444;2023-01-29T00:47:45;102986.00;;;4.67;55.11
48614;BME280;34408;51.426;5.444;2023-01-29T00:50:15;102978.84;;;4.67;55.07
48614;BME280;34408;51.426;5.444;2023-01-29T00:52:43;102978.84;;;4.67;54.88
48614;BME280;34408;51.426;5.444;2023-01-29T00:55:11;102963.97;;;4.65;55.59
48614;BME280;34408;51.426;5.444;2023-01-29T00:57:39;102962.16;;;4.65;54.94
48614;BME280;34408;51.426;5.444;2023-01-29T01:00:11;102961.31;;;4.65;55.31
48614;BME280;34408;51.426;5.444;2023-01-29T01:02:40;102950.66;;;4.65;55.35
48614;BME280;34408;51.426;5.444;2023-01-29T01:05:27;102952.34;;;4.66;55.41
48614;BME280;34408;51.426;5.444;2023-01-29T01:07:56;102952.47;;;4.64;55.19
48614;BME280;34408;51.426;5.444;2023-01-29T01:10:27;102947.16;;;4.64;54.82
48614;BME280;34408;51.426;5.444;2023-01-29T01:12:56;102943.66;;;4.64;54.99
48614;BME280;34408;51.426;5.444;2023-01-29T01:15:26;102955.16;;;4.64;54.91
48614;BME280;34408;51.426;5.444;2023-01-29T01:17:55;102957.81;;;4.64;55.19
48614;BME280;34408;51.426;5.444;2023-01-29T01:20:24;102956.25;;;4.62;55.30
48614;BME280;34408;51.426;5.444;2023-01-29T01:22:53;102955.41;;;4.61;54.92
48614;BME280;34408;51.426;5.444;2023-01-29T01:25:22;102942.63;;;4.55;55.16
48614;BME280;34408;51.426;5.444;2023-01-29T01:27:51;102952.03;;;4.59;55.25
48614;BME280;34408;51.426;5.444;2023-01-29T01:30:19;102963.53;;;4.60;54.83
48614;BME280;34408;51.426;5.444;2023-01-29T01:32:47;102954.69;;;4.59;55.37
48614;BME280;34408;51.426;5.444;2023-01-29T01:35:15;102952.03;;;4.59;55.27
48614;BME280;34408;51.426;5.444;2023-01-29T01:37:43;102958.34;;;4.58;55.48
48614;BME280;34408;51.426;5.444;2023-01-29T01:40:15;102963.66;;;4.58;55.47
48614;BME280;34408;51.426;5.444;2023-01-29T01:42:47;102953.97;;;4.57;55.42
48614;BME280;34408;51.426;5.444;2023-01-29T01:45:21;102960.16;;;4.57;55.38
48614;BME280;34408;51.426;5.444;2023-01-29T01:47:53;102975.41;;;4.55;55.07
48614;BME280;34408;51.426;5.444;2023-01-29T01:50:25;102971.91;;;4.55;54.91
48614;BME280;34408;51.426;5.444;2023-01-29T01:52:59;102972.88;;;4.54;55.38
48614;BME280;34408;51.426;5.444;2023-01-29T01:55:32;102966.72;;;4.53;55.38
48614;BME280;34408;51.426;5.444;2023-01-29T01:58:05;102964.91;;;4.54;55.44
48614;BME280;34408;51.426;5.444;2023-01-29T02:00:36;102964.91;;;4.54;55.02
48614;BME280;34408;51.426;5.444;2023-01-29T02:03:06;102966.84;;;4.52;54.95
48614;BME280;34408;51.426;5.444;2023-01-29T02:05:52;102973.00;;;4.52;54.93
48614;BME280;34408;51.426;5.444;2023-01-29T02:08:43;102964.19;;;4.52;55.49
48614;BME280;34408;51.426;5.444;2023-01-29T02:11:32;102973.97;;;4.51;55.41
48614;BME280;34408;51.426;5.444;2023-01-29T02:14:00;102972.28;;;4.50;55.00
48614;BME280;34408;51.426;5.444;2023-01-29T02:16:29;102965.41;;;4.48;55.35
48614;BME280;34408;51.426;5.444;2023-01-29T02:18:56;102971.59;;;4.48;55.72
48614;BME280;34408;51.426;5.444;2023-01-29T02:21:41;102972.56;;;4.47;55.08
48614;BME280;34408;51.426;5.444;2023-01-29T02:24:57;102973.41;;;4.48;55.03
48614;BME280;34408;51.426;5.444;2023-01-29T02:30:40;102982.50;;;4.45;55.01
48614;BME280;34408;51.426;5.444;2023-01-29T02:33:16;102982.50;;;4.45;55.22
48614;BME280;34408;51.426;5.444;2023-01-29T02:35:53;102986.13;;;4.44;55.28
48614;BME280;34408;51.426;5.444;2023-01-29T02:38:27;102979.97;;;4.44;55.88
48614;BME280;34408;51.426;5.444;2023-01-29T02:41:00;102982.63;;;4.44;54.94
48614;BME280;34408;51.426;5.444;2023-01-29T02:43:32;102969.44;;;4.42;55.26
48614;BME280;34408;51.426;5.444;2023-01-29T02:46:10;102980.22;;;4.41;54.97
48614;BME280;34408;51.426;5.444;2023-01-29T02:48:48;102973.91;;;4.42;55.01
48614;BME280;34408;51.426;5.444;2023-01-29T02:51:24;102971.38;;;4.40;55.53
48614;BME280;34408;51.426;5.444;2023-01-29T02:54:01;102976.72;;;4.40;55.20
48614;BME280;34408;51.426;5.444;2023-01-29T02:56:35;102967.03;;;4.39;55.56
48614;BME280;34408;51.426;5.444;2023-01-29T02:59:07;102968.84;;;4.39;55.12
48614;BME280;34408;51.426;5.444;2023-01-29T03:01:43;102967.16;;;4.38;55.31
48614;BME280;34408;51.426;5.444;2023-01-29T03:04:17;102961.97;;;4.36;55.60
48614;BME280;34408;51.426;5.444;2023-01-29T03:06:50;102962.69;;;4.38;55.62
48614;BME280;34408;51.426;5.444;2023-01-29T03:09:25;102955.81;;;4.36;55.68
48614;BME280;34408;51.426;5.444;2023-01-29T03:12:00;102969.94;;;4.36;55.80
48614;BME280;34408;51.426;5.444;2023-01-29T03:14:47;102968.25;;;4.35;55.14
48614;BME280;34408;51.426;5.444;2023-01-29T03:17:39;102961.13;;;4.36;55.23
48614;BME280;34408;51.426;5.444;2023-01-29T03:20:11;102971.91;;;4.34;55.47
48614;BME280;34408;51.426;5.444;2023-01-29T03:22:44;102962.94;;;4.35;54.91
48614;BME280;34408;51.426;5.444;2023-01-29T03:25:16;102956.78;;;4.35;55.46
48614;BME280;34408;51.426;5.444;2023-01-29T03:28:03;102955.22;;;4.32;55.19
48614;BME280;34408;51.426;5.444;2023-01-29T03:30:50;102963.19;;;4.32;55.86
48614;BME280;34408;51.426;5.444;2023-01-29T03:33:42;102957.03;;;4.32;55.51
48614;BME280;34408;51.426;5.444;2023-01-29T03:36:15;102950.72;;;4.33;55.39
48614;BME280;34408;51.426;5.444;2023-01-29T03:38:45;102949.91;;;4.32;55.21
48614;BME280;34408;51.426;5.444;2023-01-29T03:41:20;102941.19;;;4.30;55.36
48614;BME280;34408;51.426;5.444;2023-01-29T03:43:54;102956.31;;;4.30;55.56
48614;BME280;34408;51.426;5.444;2023-01-29T03:46:30;102955.47;;;4.29;56.04
48614;BME280;34408;51.426;5.444;2023-01-29T03:49:08;102949.31;;;4.29;55.31
48614;BME280;34408;51.426;5.444;2023-01-29T03:51:50;102958.97;;;4.30;55.33
48614;BME280;34408;51.426;5.444;2023-01-29T03:54:23;102953.78;;;4.28;55.44
48614;BME280;34408;51.426;5.444;2023-01-29T03:56:56;102944.13;;;4.27;55.66
48614;BME280;34408;51.426;5.444;2023-01-29T03:59:34;102935.28;;;4.27;55.14
48614;BME280;34408;51.426;5.444;2023-01-29T04:02:06;102943.41;;;4.25;55.82
48614;BME280;34408;51.426;5.444;2023-01-29T04:04:37;102936.25;;;4.25;55.18
48614;BME280;34408;51.426;5.444;2023-01-29T04:07:10;102942.41;;;4.26;55.82
48614;BME280;34408;51.426;5.444;2023-01-29T04:09:42;102944.25;;;4.25;56.02
48614;BME280;34408;51.426;5.444;2023-01-29T04:12:15;102942.41;;;4.26;55.91
48614;BME280;34408;51.426;5.444;2023-01-29T04:14:45;102936.38;;;4.24;55.86
48614;BME280;34408;51.426;5.444;2023-01-29T04:17:16;102936.25;;;4.25;55.74
48614;BME280;34408;51.426;5.444;2023-01-29T04:19:47;102919.44;;;4.25;55.60
48614;BME280;34408;51.426;5.444;2023-01-29T04:22:17;102918.59;;;4.24;55.93
48614;BME280;34408;51.426;5.444;2023-01-29T04:24:47;102925.59;;;4.25;56.18
48614;BME280;34408;51.426;5.444;2023-01-29T04:27:25;102922.94;;;4.25;56.17
48614;BME280;34408;51.426;5.444;2023-01-29T04:30:02;102917.63;;;4.25;56.10
48614;BME280;34408;51.426;5.444;2023-01-29T04:32:40;102916.78;;;4.25;56.49
48614;BME280;34408;51.426;5.444;2023-01-29T04:35:25;102919.31;;;4.27;56.14
48614;BME280;34408;51.426;5.444;2023-01-29T04:38:04;102917.50;;;4.27;56.09
48614;BME280;34408;51.426;5.444;2023-01-29T04:40:38;102912.56;;;4.22;56.26
48614;BME280;34408;51.426;5.444;2023-01-29T04:43:15;102911.31;;;4.27;55.97
48614;BME280;34408;51.426;5.444;2023-01-29T04:45:51;102908.66;;;4.27;56.23
48614;BME280;34408;51.426;5.444;2023-01-29T04:48:28;102901.66;;;4.25;56.78
48614;BME280;34408;51.426;5.444;2023-01-29T04:51:04;102903.34;;;4.27;56.57
48614;BME280;34408;51.426;5.444;2023-01-29T04:53:38;102890.88;;;4.27;56.68
48614;BME280;34408;51.426;5.444;2023-01-29T04:56:11;102892.81;;;4.25;56.22
48614;BME280;34408;51.426;5.444;2023-01-29T04:58:45;102884.84;;;4.25;56.58
48614;BME280;34408;51.426;5.444;2023-01-29T05:01:17;102889.31;;;4.24;56.39
48614;BME280;34408;51.426;5.444;2023-01-29T05:03:48;102878.81;;;4.23;56.80
48614;BME280;34408;51.426;5.444;2023-01-29T05:06:19;102880.38;;;4.25;56.96
48614;BME280;34408;51.426;5.444;2023-01-29T05:08:48;102874.31;;;4.23;56.92
48614;BME280;34408;51.426;5.444;2023-01-29T05:11:18;102871.53;;;4.25;56.85
48614;BME280;34408;51.426;5.444;2023-01-29T05:13:47;102865.50;;;4.23;56.09
48614;BME280;34408;51.426;5.444;2023-01-29T05:16:18;102871.66;;;4.23;56.26
48614;BME280;34408;51.426;5.444;2023-01-29T05:18:47;102855.13;;;4.20;57.12
48614;BME280;34408;51.426;5.444;2023-01-29T05:21:15;102852.19;;;4.23;56.79
48614;BME280;34408;51.426;5.444;2023-01-29T05:23:44;102864.66;;;4.22;56.56
48614;BME280;34408;51.426;5.444;2023-01-29T05:26:18;102866.47;;;4.22;57.11
48614;BME280;34408;51.426;5.444;2023-01-29T05:29:04;102870.81;;;4.23;57.31
48614;BME280;34408;51.426;5.444;2023-01-29T05:31:32;102856.66;;;4.22;56.86
48614;BME280;34408;51.426;5.444;2023-01-29T05:34:00;102851.34;;;4.22;56.58
48614;BME280;34408;51.426;5.444;2023-01-29T05:36:27;102853.16;;;4.22;57.32
48614;BME280;34408;51.426;5.444;2023-01-29T05:38:57;102844.34;;;4.21;57.32
48614;BME280;34408;51.426;5.444;2023-01-29T05:41:25;102844.34;;;4.21;56.88
48614;BME280;34408;51.426;5.444;2023-01-29T05:43:53;102846.16;;;4.21;57.10
48614;BME280;34408;51.426;5.444;2023-01-29T05:46:20;102848.81;;;4.21;57.11
48614;BME280;34408;51.426;5.444;2023-01-29T05:48:51;102847.84;;;4.22;56.96
48614;BME280;34408;51.426;5.444;2023-01-29T05:51:19;102854.16;;;4.21;56.79
48614;BME280;34408;51.426;5.444;2023-01-29T05:53:46;102864.66;;;4.22;57.13
48614;BME280;34408;51.426;5.444;2023-01-29T05:56:15;102859.34;;;4.22;57.55
48614;BME280;34408;51.426;5.444;2023-01-29T05:58:43;102862.84;;;4.23;56.92
48614;BME280;34408;51.426;5.444;2023-01-29T06:01:13;102875.16;;;4.24;56.81
48614;BME280;34408;51.426;5.444;2023-01-29T06:03:41;102876.72;;;4.27;57.49
48614;BME280;34408;51.426;5.444;2023-01-29T06:06:09;102870.50;;;4.37;56.48
48614;BME280;34408;51.426;5.444;2023-01-29T06:08:37;102879.09;;;4.50;56.77
48614;BME280;34408;51.426;5.444;2023-01-29T06:11:07;102877.91;;;4.64;55.94
48614;BME280;34408;51.426;5.444;2023-01-29T06:13:37;102877.16;;;4.83;55.73
48614;BME280;34408;51.426;5.444;2023-01-29T06:16:05;102872.16;;;4.99;55.68
48614;BME280;34408;51.426;5.444;2023-01-29T06:18:34;102871.50;;;5.16;54.52
48614;BME280;34408;51.426;5.444;2023-01-29T06:21:03;102858.31;;;5.34;54.53
48614;BME280;34408;51.426;5.444;2023-01-29T06:23:31;102857.22;;;5.46;54.05
48614;BME280;34408;51.426;5.444;2023-01-29T06:25:59;102873.50;;;5.63;53.77
48614;BME280;34408;51.426;5.444;2023-01-29T06:28:27;102892.75;;;5.76;53.12
48614;BME280;34408;51.426;5.444;2023-01-29T06:30:57;102880.53;;;5.83;53.17
48614;BME280;34408;51.426;5.444;2023-01-29T06:33:41;102889.00;;;5.98;52.68
48614;BME280;34408;51.426;5.444;2023-01-29T06:36:09;102878.44;;;6.06;52.28
48614;BME280;34408;51.426;5.444;2023-01-29T06:38:37;102863.84;;;6.10;52.20
48614;BME280;34408;51.426;5.444;2023-01-29T06:41:10;102852.19;;;6.01;52.36
48614;BME280;34408;51.426;5.444;2023-01-29T06:43:38;102832.22;;;5.86;52.81
48614;BME280;34408;51.426;5.444;2023-01-29T06:46:08;102836.59;;;5.68;53.18
48614;BME280;34408;51.426;5.444;2023-01-29T06:48:35;102834.91;;;5.47;54.02
48614;BME280;34408;51.426;5.444;2023-01-29T06:51:05;102854.25;;;5.30;54.49
48614;BME280;34408;51.426;5.444;2023-01-29T06:53:34;102849.91;;;5.19;55.04
48614;BME280;34408;51.426;5.444;2023-01-29T06:56:02;102846.53;;;5.08;54.96
48614;BME280;34408;51.426;5.444;2023-01-29T06:58:30;102840.06;;;5.01;55.71
48614;BME280;34408;51.426;5.444;2023-01-29T07:01:02;102842.28;;;4.96;55.52
48614;BME280;34408;51.426;5.444;2023-01-29T07:03:31;102836.53;;;4.90;55.93
48614;BME280;34408;51.426;5.444;2023-01-29T07:06:00;102827.97;;;4.87;55.81
48614;BME280;34408;51.426;5.444;2023-01-29T07:08:27;102832.84;;;4.82;55.97
48614;BME280;34408;51.426;5.444;2023-01-29T07:10:57;102827.78;;;4.79;56.46
48614;BME280;34408;51.426;5.444;2023-01-29T07:13:26;102825.81;;;4.71;56.28
48614;BME280;34408;51.426;5.444;2023-01-29T07:15:57;102816.78;;;4.63;56.88
48614;BME280;34408;51.426;5.444;2023-01-29T07:18:25;102840.22;;;4.69;56.26
48614;BME280;34408;51.426;5.444;2023-01-29T07:20:54;102830.69;;;4.66;56.44
48614;BME280;34408;51.426;5.444;2023-01-29T07:23:22;102831.94;;;4.62;56.46
48614;BME280;34408;51.426;5.444;2023-01-29T07:25:50;102838.25;;;4.61;57.42
48614;BME280;34408;51.426;5.444;2023-01-29T07:28:18;102834.28;;;4.55;57.20
48614;BME280;34408;51.426;5.444;2023-01-29T07:30:46;102839.47;;;4.57;56.88
48614;BME280;34408;51.426;5.444;2023-01-29T07:33:14;102843.88;;;4.68;57.16
48614;BME280;34408;51.426;5.444;2023-01-29T07:35:42;102841.81;;;4.81;56.39
48614;BME280;34408;51.426;5.444;2023-01-29T07:38:11;102838.50;;;4.98;55.71
48614;BME280;34408;51.426;5.444;2023-01-29T07:40:39;102849.34;;;5.16;55.30
48614;BME280;34408;51.426;5.444;2023-01-29T07:43:08;102834.59;;;5.31;54.88
48614;BME280;34408;51.426;5.444;2023-01-29T07:45:37;102830.13;;;5.51;54.45
48614;BME280;34408;51.426;5.444;2023-01-29T07:48:08;102831.53;;;5.65;54.05
48614;BME280;34408;51.426;5.444;2023-01-29T07:50:36;102825.34;;;5.83;53.74
48614;BME280;34408;51.426;5.444;2023-01-29T07:53:04;102820.44;;;5.98;53.30
48614;BME280;34408;51.426;5.444;2023-01-29T07:55:33;102820.00;;;6.12;53.20
48614;BME280;34408;51.426;5.444;2023-01-29T07:58:02;102829.66;;;6.23;52.69
48614;BME280;34408;51.426;5.444;2023-01-29T08:00:30;102833.44;;;6.30;52.07
48614;BME280;34408;51.426;5.444;2023-01-29T08:03:02;102831.47;;;6.32;52.24
48614;BME280;34408;51.426;5.444;2023-01-29T08:05:30;102825.84;;;6.35;51.96
48614;BME280;34408;51.426;5.444;2023-01-29T08:07:58;102821.19;;;6.37;52.08
48614;BME280;34408;51.426;5.444;2023-01-29T08:10:34;102826.41;;;6.29;52.08
48614;BME280;34408;51.426;5.444;2023-01-29T08:13:03;102835.03;;;6.13;52.66
48614;BME280;34408;51.426;5.444;2023-01-29T08:15:31;102818.91;;;5.96;53.10
48614;BME280;34408;51.426;5.444;2023-01-29T08:18:00;102815.38;;;5.76;53.91
48614;BME280;34408;51.426;5.444;2023-01-29T08:20:28;102824.94;;;5.59;54.44
48614;BME280;34408;51.426;5.444;2023-01-29T08:22:59;102816.25;;;5.47;54.69
48614;BME280;34408;51.426;5.444;2023-01-29T08:25:27;102811.88;;;5.37;54.93
48614;BME280;34408;51.426;5.444;2023-01-29T08:27:58;102828.00;;;5.26;55.73
48614;BME280;34408;51.426;5.444;2023-01-29T08:30:28;102826.59;;;5.21;55.84
48614;BME280;34408;51.426;5.444;2023-01-29T08:32:56;102837.72;;;5.17;56.05
48614;BME280;34408;51.426;5.444;2023-01-29T08:35:24;102827.59;;;5.11;55.63
48614;BME280;34408;51.426;5.444;2023-01-29T08:37:52;102823.66;;;5.05;56.29
48614;BME280;34408;51.426;5.444;2023-01-29T08:40:21;102815.09;;;5.02;56.03
48614;BME280;34408;51.426;5.444;2023-01-29T08:42:48;102812.00;;;4.97;56.40
48614;BME280;34408;51.426;5.444;2023-01-29T08:45:18;102817.59;;;4.94;56.50
48614;BME280;34408;51.426;5.444;2023-01-29T08:47:46;102816.88;;;4.92;57.02
48614;BME280;34408;51.426;5.444;2023-01-29T08:50:14;102818.00;;;4.89;56.39
48614;BME280;34408;51.426;5.444;2023-01-29T08:52:43;102806.66;;;4.87;56.69
48614;BME280;34408;51.426;5.444;2023-01-29T08:55:12;102795.28;;;4.85;56.83
48614;BME280;34408;51.426;5.444;2023-01-29T08:57:40;102799.78;;;4.84;56.70
48614;BME280;34408;51.426;5.444;2023-01-29T09:00:10;102797.38;;;4.81;56.83
48614;BME280;34408;51.426;5.444;2023-01-29T09:02:39;102801.88;;;4.81;56.96
48614;BME280;34408;51.426;5.444;2023-01-29T09:05:08;102796.81;;;4.78;57.58
48614;BME280;34408;51.426;5.444;2023-01-29T09:07:36;102801.28;;;4.77;57.44
48614;BME280;34408;51.426;5.444;2023-01-29T09:10:04;102809.41;;;4.76;57.48
48614;BME280;34408;51.426;5.444;2023-01-29T09:12:32;102815.72;;;4.75;57.59
48614;BME280;34408;51.426;5.444;2023-01-29T09:15:00;102804.34;;;4.73;57.62
48614;BME280;34408;51.426;5.444;2023-01-29T09:17:28;102802.69;;;4.72;57.21
48614;BME280;34408;51.426;5.444;2023-01-29T09:19:57;102797.50;;;4.80;57.52
48614;BME280;34408;51.426;5.444;2023-01-29T09:22:24;102786.31;;;4.86;57.15
48614;BME280;34408;51.426;5.444;2023-01-29T09:24:52;102791.25;;;5.10;56.71
48614;BME280;34408;51.426;5.444;2023-01-29T09:27:20;102783.28;;;5.19;55.96
48614;BME280;34408;51.426;5.444;2023-01-29T09:29:48;102784.94;;;5.40;55.56
48614;BME280;34408;51.426;5.444;2023-01-29T09:32:15;102787.75;;;5.57;55.21
48614;BME280;34408;51.426;5.444;2023-01-29T09:35:05;102785.06;;;5.67;54.98
48614;BME280;34408;51.426;5.444;2023-01-29T09:37:33;102780.72;;;5.66;54.67
48614;BME280;34408;51.426;5.444;2023-01-29T09:40:01;102773.28;;;5.60;54.92
48614;BME280;34408;51.426;5.444;2023-01-29T09:42:35;102783.13;;;5.50;55.39
48614;BME280;34408;51.426;5.444;2023-01-29T09:45:09;102775.41;;;5.37;55.42
48614;BME280;34408;51.426;5.444;2023-01-29T09:47:39;102777.22;;;5.27;55.85
48614;BME280;34408;51.426;5.444;2023-01-29T09:50:14;102779.59;;;5.20;55.98
48614;BME280;34408;51.426;5.444;2023-01-29T09:52:49;102776.69;;;5.14;56.17
48614;BME280;34408;51.426;5.444;2023-01-29T09:55:22;102771.63;;;5.11;56.21
48614;BME280;34408;51.426;5.444;2023-01-29T09:57:53;102768.41;;;5.07;56.47
48614;BME280;34408;51.426;5.444;2023-01-29T10:00:24;102773.16;;;5.04;56.88
48614;BME280;34408;51.426;5.444;2023-01-29T10:03:12;102777.94;;;5.00;56.59
48614;BME280;34408;51.426;5.444;2023-01-29T10:05:58;102777.22;;;4.98;57.08
48614;BME280;34408;51.426;5.444;2023-01-29T10:08:47;102785.50;;;4.95;56.94
48614;BME280;34408;51.426;5.444;2023-01-29T10:11:29;102777.06;;;4.90;57.43
48614;BME280;34408;51.426;5.444;2023-01-29T10:14:07;102790.53;;;4.88;57.18
48614;BME280;34408;51.426;5.444;2023-01-29T10:16:46;102788.13;;;4.85;57.66
48614;BME280;34408;51.426;5.444;2023-01-29T10:19:34;102792.75;;;4.83;57.63
48614;BME280;34408;51.426;5.444;2023-01-29T10:22:25;102791.22;;;4.81;57.36
48614;BME280;34408;51.426;5.444;2023-01-29T10:24:59;102792.06;;;4.81;57.48
48614;BME280;34408;51.426;5.444;2023-01-29T10:27:32;102786.84;;;4.80;57.38
48614;BME280;34408;51.426;5.444;2023-01-29T10:30:02;102789.38;;;4.81;57.62
48614;BME280;34408;51.426;5.444;2023-01-29T10:32:35;102781.81;;;4.77;58.03
48614;BME280;34408;51.426;5.444;2023-01-29T10:35:14;102777.19;;;4.79;57.60
48614;BME280;34408;51.426;5.444;2023-01-29T10:37:51;102779.84;;;4.79;58.29
48614;BME280;34408;51.426;5.444;2023-01-29T10:40:21;102768.47;;;4.77;57.77
48614;BME280;34408;51.426;5.444;2023-01-29T10:42:56;102778.03;;;4.79;57.81
48614;BME280;34408;51.426;5.444;2023-01-29T10:45:32;102772.56;;;4.81;57.49
48614;BME280;34408;51.426;5.444;2023-01-29T10:48:39;102769.78;;;4.92;57.25
48614;BME280;34408;51.426;5.444;2023-01-29T10:51:20;102768.25;;;5.09;56.64
48614;BME280;34408;51.426;5.444;2023-01-29T10:54:04;102757.84;;;5.25;56.20
48614;BME280;34408;51.426;5.444;2023-01-29T10:56:51;102755.34;;;5.43;55.61
48614;BME280;34408;51.426;5.444;2023-01-29T10:59:35;102756.44;;;5.60;55.59
48614;BME280;34408;51.426;5.444;2023-01-29T11:02:13;102748.69;;;5.76;55.05
48614;BME280;34408;51.426;5.444;2023-01-29T11:04:43;102749.81;;;5.73;55.02
48614;BME280;34408;51.426;5.444;2023-01-29T11:07:12;102755.03;;;5.65;55.32
48614;BME280;34408;51.426;5.444;2023-01-29T11:09:45;102742.97;;;5.61;55.54
48614;BME280;34408;51.426;5.444;2023-01-29T11:12:17;102742.97;;;5.51;55.42
48614;BME280;34408;51.426;5.444;2023-01-29T11:14:50;102737.78;;;5.40;56.26
48614;BME280;34408;51.426;5.444;2023-01-29T11:17:22;102728.69;;;5.33;56.02
48614;BME280;34408;51.426;5.444;2023-01-29T11:19:52;102722.22;;;5.26;56.30
48614;BME280;34408;51.426;5.444;2023-01-29T11:22:22;102720.16;;;5.20;56.61
48614;BME280;34408;51.426;5.444;2023-01-29T11:25:07;102717.91;;;5.15;57.14
48614;BME280;34408;51.426;5.444;2023-01-29T11:27:42;102717.63;;;5.09;57.11
48614;BME280;34408;51.426;5.444;2023-01-29T11:30:16;102708.66;;;5.10;56.98
48614;BME280;34408;51.426;5.444;2023-01-29T11:32:49;102700.09;;;5.06;57.07
48614;BME280;34408;51.426;5.444;2023-01-29T11:35:24;102691.41;;;5.04;57.53
48614;BME280;34408;51.426;5.444;2023-01-29T11:37:51;102687.06;;;5.03;57.44
48614;BME280;34408;51.426;5.444;2023-01-29T11:40:36;102683.69;;;5.01;57.41
48614;BME280;34408;51.426;5.444;2023-01-29T11:43:12;102673.16;;;5.00;57.87
48614;BME280;34408;51.426;5.444;2023-01-29T11:45:44;102663.50;;;4.99;57.35
48614;BME280;34408;51.426;5.444;2023-01-29T11:48:14;102658.03;;;5.00;58.20
48614;BME280;34408;51.426;5.444;2023-01-29T11:50:50;102652.69;;;5.00;57.78
48614;BME280;34408;51.426;5.444;2023-01-29T11:53:26;102651.72;;;5.01;57.61
48614;BME280;34408;51.426;5.444;2023-01-29T11:55:59;102644.69;;;5.00;57.83
48614;BME280;34408;51.426;5.444;2023-01-29T11:58:31;102641.34;;;4.98;57.57
48614;BME280;34408;51.426;5.444;2023-01-29T12:01:01;102638.53;;;5.00;58.26
48614;BME280;34408;51.426;5.444;2023-01-29T12:03:33;102622.69;;;4.98;57.88
48614;BME280;34408;51.426;5.444;2023-01-29T12:06:04;102622.69;;;4.98;58.43
48614;BME280;34408;51.426;5.444;2023-01-29T12:08:36;102609.38;;;4.98;57.86
48614;BME280;34408;51.426;5.444;2023-01-29T12:11:10;102609.38;;;4.98;58.00
48614;BME280;34408;51.426;5.444;2023-01-29T12:13:40;102595.75;;;5.11;57.50
48614;BME280;34408;51.426;5.444;2023-01-29T12:16:15;102587.97;;;5.27;57.08
48614;BME280;34408;51.426;5.444;2023-01-29T12:18:49;102579.75;;;5.48;56.47
48614;BME280;34408;51.426;5.444;2023-01-29T12:21:22;102567.47;;;5.65;56.01
48614;BME280;34408;51.426;5.444;2023-01-29T12:23:56;102569.34;;;5.82;55.67
48614;BME280;34408;51.426;5.444;2023-01-29T12:26:32;102563.88;;;5.83;55.38
48614;BME280;34408;51.426;5.444;2023-01-29T12:29:15;102556.84;;;5.82;55.58
48614;BME280;34408;51.426;5.444;2023-01-29T12:31:49;102555.91;;;5.74;56.14
48614;BME280;34408;51.426;5.444;2023-01-29T12:34:29;102555.28;;;5.62;56.32
48614;BME280;34408;51.426;5.444;2023-01-29T12:37:01;102548.00;;;5.54;56.33
48614;BME280;34408;51.426;5.444;2023-01-29T12:39:29;102549.44;;;5.49;56.79
48614;BME280;34408;51.426;5.444;2023-01-29T12:42:02;102548.19;;;5.43;56.87
48614;BME280;34408;51.426;5.444;2023-01-29T12:44:34;102545.28;;;5.37;57.00
48614;BME280;34408;51.426;5.444;2023-01-29T12:47:13;102543.75;;;5.34;57.39
48614;BME280;34408;51.426;5.444;2023-01-29T12:49:45;102538.84;;;5.30;57.51
48614;BME280;34408;51.426;5.444;2023-01-29T12:52:19;102538.69;;;5.31;57.44
48614;BME280;34408;51.426;5.444;2023-01-29T12:54:52;102534.66;;;5.27;57.03
48614;BME280;34408;51.426;5.444;2023-01-29T12:57:30;102536.75;;;5.23;57.22
48614;BME280;34408;51.426;5.444;2023-01-29T13:00:04;102531.56;;;5.22;57.32
48614;BME280;34408;51.426;5.444;2023-01-29T13:02:36;102528.25;;;5.20;57.14
48614;BME280;34408;51.426;5.444;2023-01-29T13:05:16;102528.41;;;5.18;57.16
48614;BME280;34408;51.426;5.444;2023-01-29T13:07:47;102529.53;;;5.16;57.90
48614;BME280;34408;51.426;5.444;2023-01-29T13:10:19;102526.31;;;5.12;57.84
48614;BME280;34408;51.426;5.444;2023-01-29T13:12:57;102520.84;;;5.14;57.78
48614;BME280;34408;51.426;5.444;2023-01-29T13:15:29;102512.97;;;5.12;57.86
48614;BME280;34408;51.426;5.444;2023-01-29T13:18:15;102509.47;;;5.12;57.58
48614;BME280;34408;51.426;5.444;2023-01-29T13:20:48;102502.94;;;5.24;57.25
48614;BME280;34408;51.426;5.444;2023-01-29T13:23:20;102503.84;;;5.42;56.76
48614;BME280;34408;51.426;5.444;2023-01-29T13:25:51;102504.44;;;5.64;56.70
48614;BME280;34408;51.426;5.444;2023-01-29T13:28:23;102500.13;;;5.80;56.13
48614;BME280;34408;51.426;5.444;2023-01-29T13:31:16;102493.03;;;5.99;55.71